createdAt,value
2017-11-05T00:00:02.024Z,42.80
2017-11-05T00:02:30.037Z,46.87
2017-11-05T00:04:57.619Z,53.20
2017-11-05T00:07:26.624Z,50.37
2017-11-05T00:09:54.201Z,47.87
2017-11-05T00:12:21.801Z,44.20
2017-11-05T00:14:49.410Z,54.63
2017-11-05T00:17:17.731Z,47.33
2017-11-05T00:19:46.104Z,44.30
2017-11-05T00:22:14.439Z,49.20
2017-11-05T00:24:42.050Z,49.33
2017-11-05T00:27:12.457Z,43.80
2017-11-05T00:29:40.513Z,45.43
2017-11-05T00:32:09.229Z,44.70
2017-11-05T00:34:37.595Z,45.73
2017-11-05T00:37:06.294Z,45.03
2017-11-05T00:39:34.308Z,45.73
2017-11-05T00:42:01.875Z,50.57
2017-11-05T00:44:30.268Z,46.70
2017-11-05T00:46:57.856Z,55.67
2017-11-05T00:49:26.991Z,45.30
2017-11-05T00:51:54.576Z,42.90
2017-11-05T00:54:22.933Z,43.20
2017-11-05T00:56:50.554Z,48.47
2017-11-05T00:59:19.639Z,47.63
2017-11-05T01:01:47.249Z,48.10
2017-11-05T01:04:15.576Z,55.07
2017-11-05T01:06:43.202Z,58.97
2017-11-05T01:09:12.154Z,58.17
2017-11-05T01:11:39.754Z,59.13
2017-11-05T01:14:08.687Z,61.80
2017-11-05T01:16:37.459Z,63.00
2017-11-05T01:19:06.178Z,54.70
2017-11-05T01:21:34.149Z,60.47
2017-11-05T01:24:03.264Z,53.97
2017-11-05T01:26:31.245Z,54.07
2017-11-05T01:31:50.493Z,55.23
2017-11-05T01:34:19.625Z,56.37
2017-11-05T01:36:47.579Z,57.13
2017-11-05T01:39:16.715Z,55.73
2017-11-05T01:41:44.307Z,56.43
2017-11-05T01:44:13.436Z,61.53
2017-11-05T01:46:40.996Z,66.30
2017-11-05T01:49:09.405Z,52.83
2017-11-05T01:51:37.368Z,59.87
2017-11-05T01:54:06.065Z,54.97
2017-11-05T01:56:35.027Z,49.23
2017-11-05T01:59:02.984Z,51.67
2017-11-05T02:01:32.121Z,49.93
2017-11-05T02:04:01.205Z,45.00
2017-11-05T02:06:30.144Z,49.17
2017-11-05T02:08:58.123Z,52.80
2017-11-05T02:11:27.087Z,52.30
2017-11-05T02:13:54.649Z,55.23
2017-11-05T02:16:23.740Z,59.30
2017-11-05T02:18:51.369Z,54.83
2017-11-05T02:21:19.705Z,60.13
2017-11-05T02:23:47.337Z,56.90
2017-11-05T02:26:17.076Z,59.03
2017-11-05T02:28:46.041Z,64.40
2017-11-05T02:31:14.387Z,54.93
2017-11-05T02:33:41.973Z,56.27
2017-11-05T02:36:10.374Z,62.37
2017-11-05T02:38:38.349Z,55.07
2017-11-05T02:41:06.395Z,53.37
2017-11-05T02:43:34.374Z,61.47
2017-11-05T02:46:01.997Z,52.67
2017-11-05T02:48:30.027Z,59.20
2017-11-05T02:50:58.054Z,66.97
2017-11-05T02:53:27.122Z,66.20
2017-11-05T02:55:54.710Z,64.87
2017-11-05T02:58:23.087Z,63.43
2017-11-05T03:00:50.682Z,64.10
2017-11-05T03:03:19.807Z,55.50
2017-11-05T03:05:47.372Z,55.90
2017-11-05T03:08:15.753Z,61.40
2017-11-05T03:10:43.332Z,63.30
2017-11-05T03:13:11.336Z,57.90
2017-11-05T03:15:39.679Z,51.40
2017-11-05T03:18:08.614Z,54.30
2017-11-05T03:20:36.194Z,55.70
2017-11-05T03:23:04.160Z,54.53
2017-11-05T03:25:32.184Z,61.43
2017-11-05T03:28:00.889Z,60.60
2017-11-05T03:33:20.904Z,54.90
2017-11-05T03:35:49.291Z,54.70
2017-11-05T03:38:17.621Z,55.77
2017-11-05T03:40:45.275Z,56.90
2017-11-05T03:43:14.183Z,58.23
2017-11-05T03:45:41.745Z,62.47
2017-11-05T03:48:09.333Z,64.30
2017-11-05T03:50:37.305Z,62.53
2017-11-05T03:53:06.281Z,65.27
2017-11-05T03:55:35.247Z,63.83
2017-11-05T03:58:04.189Z,65.70
2017-11-05T04:00:33.104Z,66.83
2017-11-05T04:03:01.172Z,60.90
2017-11-05T04:05:30.091Z,63.63
2017-11-05T04:07:57.658Z,65.87
2017-11-05T04:10:26.642Z,57.23
2017-11-05T04:12:54.200Z,61.53
2017-11-05T04:15:21.831Z,63.30
2017-11-05T04:17:49.405Z,54.80
2017-11-05T04:20:17.800Z,53.17
2017-11-05T04:22:46.160Z,52.80
2017-11-05T04:25:14.537Z,50.47
2017-11-05T04:27:42.120Z,49.63
2017-11-05T04:30:10.501Z,48.70
2017-11-05T04:32:38.493Z,50.97
2017-11-05T04:35:06.125Z,46.70
2017-11-05T04:37:35.074Z,50.80
2017-11-05T04:40:03.042Z,47.30
2017-11-05T04:42:31.055Z,47.13
2017-11-05T04:45:00.017Z,48.20
2017-11-05T04:47:28.036Z,44.10
2017-11-05T04:49:56.732Z,43.10
2017-11-05T04:52:25.704Z,44.80
2017-11-05T04:54:53.309Z,41.83
2017-11-05T04:57:20.889Z,45.23
2017-11-05T04:59:49.261Z,39.63
2017-11-05T05:02:17.589Z,42.47
2017-11-05T05:04:45.195Z,37.73
2017-11-05T05:07:13.557Z,39.50
2017-11-05T05:09:41.184Z,45.20
2017-11-05T05:12:10.289Z,40.00
2017-11-05T05:14:39.410Z,40.50
2017-11-05T05:17:08.109Z,37.63
2017-11-05T05:19:36.510Z,37.03
2017-11-05T05:22:05.443Z,45.73
2017-11-05T05:24:34.364Z,41.90
2017-11-05T05:27:03.340Z,47.67
2017-11-05T05:29:32.065Z,41.27
2017-11-05T05:32:00.095Z,41.13
2017-11-05T05:37:19.916Z,40.13
2017-11-05T05:39:47.485Z,42.27
2017-11-05T05:42:16.473Z,39.93
2017-11-05T05:44:44.032Z,45.70
2017-11-05T05:47:12.418Z,41.67
2017-11-05T05:49:40.000Z,36.57
2017-11-05T05:52:08.329Z,40.00
2017-11-05T05:54:36.343Z,38.13
2017-11-05T05:57:05.274Z,39.63
2017-11-05T05:59:33.340Z,40.63
2017-11-05T06:02:00.918Z,37.67
2017-11-05T06:04:29.891Z,46.87
2017-11-05T06:06:57.469Z,38.77
2017-11-05T06:09:25.109Z,41.77
2017-11-05T06:11:52.684Z,38.13
2017-11-05T06:14:21.013Z,39.40
2017-11-05T06:16:49.383Z,41.53
2017-11-05T06:19:17.734Z,40.53
2017-11-05T06:21:45.377Z,40.20
2017-11-05T06:24:13.347Z,38.10
2017-11-05T06:26:41.724Z,39.23
2017-11-05T06:29:09.733Z,37.27
2017-11-05T06:31:44.518Z,41.33
2017-11-05T06:34:25.072Z,39.80
2017-11-05T06:36:54.729Z,40.60
2017-11-05T06:39:26.337Z,38.10
2017-11-05T06:41:54.430Z,38.90
2017-11-05T06:44:22.789Z,40.30
2017-11-05T06:46:50.370Z,41.07
2017-11-05T06:49:19.459Z,43.70
2017-11-05T06:51:47.056Z,42.80
2017-11-05T06:54:14.681Z,37.33
2017-11-05T06:56:43.042Z,38.37
2017-11-05T06:59:11.601Z,37.43
2017-11-05T07:01:47.689Z,42.03
2017-11-05T07:04:16.652Z,36.00
2017-11-05T07:06:44.230Z,39.90
2017-11-05T07:09:13.181Z,36.90
2017-11-05T07:11:41.501Z,39.97
2017-11-05T07:14:09.489Z,40.30
2017-11-05T07:16:37.474Z,40.57
2017-11-05T07:19:06.238Z,39.90
2017-11-05T07:21:35.330Z,45.03
2017-11-05T07:24:03.325Z,42.53
2017-11-05T07:26:32.284Z,40.30
2017-11-05T07:28:59.848Z,36.87
2017-11-05T09:23:51.605Z,22.07
2017-11-05T09:26:19.979Z,22.63
2017-11-05T09:28:48.316Z,27.43
2017-11-05T09:31:15.941Z,23.00
2017-11-05T09:33:43.508Z,25.73
2017-11-05T09:36:11.534Z,21.77
2017-11-05T09:38:39.533Z,24.37
2017-11-05T09:41:07.539Z,19.83
2017-11-05T09:43:35.539Z,24.73
2017-11-05T09:46:03.111Z,25.23
2017-11-05T09:48:31.178Z,17.67
2017-11-05T09:50:58.752Z,22.17
2017-11-05T09:53:27.157Z,23.87
2017-11-05T09:55:54.789Z,22.70
2017-11-05T09:58:23.533Z,24.87
2017-11-05T10:00:51.125Z,21.13
2017-11-05T10:03:19.102Z,10.23
2017-11-05T10:05:47.089Z,8.90
2017-11-05T10:08:15.055Z,9.07
2017-11-05T10:10:43.040Z,9.63
2017-11-05T10:13:10.630Z,7.73
2017-11-05T10:15:38.194Z,8.20
2017-11-05T10:18:06.565Z,9.73
2017-11-05T10:20:34.890Z,10.03
2017-11-05T10:23:02.474Z,7.77
2017-11-05T10:25:30.487Z,9.43
2017-11-05T10:27:58.473Z,8.80
2017-11-05T10:30:27.557Z,8.20
2017-11-05T10:32:55.609Z,6.03
2017-11-05T10:35:23.209Z,7.27
2017-11-05T10:37:51.199Z,6.10
2017-11-05T10:40:18.752Z,4.87
2017-11-05T10:42:46.747Z,4.77
2017-11-05T10:45:14.303Z,4.20
2017-11-05T10:47:44.167Z,5.57
2017-11-05T10:50:12.860Z,3.87
2017-11-05T10:52:41.192Z,4.57
2017-11-05T10:55:24.869Z,3.50
2017-11-05T11:00:46.065Z,5.00
2017-11-05T11:03:27.681Z,7.17
2017-11-05T11:05:57.540Z,5.90
2017-11-05T11:08:25.512Z,9.93
2017-11-05T11:10:53.889Z,7.03
2017-11-05T11:13:21.856Z,5.40
2017-11-05T11:15:50.857Z,4.87
2017-11-05T11:18:21.845Z,3.87
2017-11-05T11:20:49.483Z,4.10
2017-11-05T11:23:17.436Z,3.50
2017-11-05T11:25:45.769Z,5.37
